sensor_id;sensor_type;location;lat;lon;timestamp;temperature;humidity
74484;SHT31;62942;52.462;10.846;2023-06-10T00:00:50;14.1;84
74484;SHT31;62942;52.462;10.846;2023-06-10T00:02:00;14;84
74484;SHT31;62942;52.462;10.846;2023-06-10T00:03:00;14;84.3
74484;SHT31;62942;52.462;10.846;2023-06-10T00:04:10;14;84.8
74484;SHT31;62942;52.462;10.846;2023-06-10T00:05:10;13.9;84.6
74484;SHT31;62942;52.462;10.846;2023-06-10T00:06:20;13.9;84.8
74484;SHT31;62942;52.462;10.846;2023-06-10T00:07:20;13.9;84.8
74484;SHT31;62942;52.462;10.846;2023-06-10T00:08:20;13.8;85
74484;SHT31;62942;52.462;10.846;2023-06-10T00:09:30;13.8;85.1
74484;SHT31;62942;52.462;10.846;2023-06-10T00:10:40;13.8;85.5
74484;SHT31;62942;52.462;10.846;2023-06-10T00:11:40;13.8;85.6
74484;SHT31;62942;52.462;10.846;2023-06-10T00:12:40;13.7;86.3
74484;SHT31;62942;52.462;10.846;2023-06-10T00:13:50;13.7;86.2
74484;SHT31;62942;52.462;10.846;2023-06-10T00:14:50;13.7;86.3
74484;SHT31;62942;52.462;10.846;2023-06-10T00:16:00;13.7;86.4
74484;SHT31;62942;52.462;10.846;2023-06-10T00:17:00;13.7;86.5
74484;SHT31;62942;52.462;10.846;2023-06-10T00:18:10;13.6;86.6
74484;SHT31;62942;52.462;10.846;2023-06-10T00:19:10;13.6;86.7
74484;SHT31;62942;52.462;10.846;2023-06-10T00:20:20;13.6;87
74484;SHT31;62942;52.462;10.846;2023-06-10T00:21:31;13.5;87.1
74484;SHT31;62942;52.462;10.846;2023-06-10T00:22:30;13.6;87.2
74484;SHT31;62942;52.462;10.846;2023-06-10T00:23:40;13.6;87.4
74484;SHT31;62942;52.462;10.846;2023-06-10T00:24:50;13.5;87.9
74484;SHT31;62942;52.462;10.846;2023-06-10T00:25:50;13.5;87.8
74484;SHT31;62942;52.462;10.846;2023-06-10T00:27:00;13.5;87.9
74484;SHT31;62942;52.462;10.846;2023-06-10T00:28:00;13.5;88.3
74484;SHT31;62942;52.462;10.846;2023-06-10T00:29:00;13.4;88.2
74484;SHT31;62942;52.462;10.846;2023-06-10T00:30:11;13.4;88.4
74484;SHT31;62942;52.462;10.846;2023-06-10T00:31:10;13.4;88.6
74484;SHT31;62942;52.462;10.846;2023-06-10T00:32:20;13.4;88.5
74484;SHT31;62942;52.462;10.846;2023-06-10T00:33:30;13.4;88.6
74484;SHT31;62942;52.462;10.846;2023-06-10T00:34:30;13.3;89.1
74484;SHT31;62942;52.462;10.846;2023-06-10T00:35:30;13.3;88.8
74484;SHT31;62942;52.462;10.846;2023-06-10T00:36:40;13.3;89.1
74484;SHT31;62942;52.462;10.846;2023-06-10T00:37:50;13.3;89.1
74484;SHT31;62942;52.462;10.846;2023-06-10T00:38:50;13.2;89.3
74484;SHT31;62942;52.462;10.846;2023-06-10T00:40:00;13.2;89.4
74484;SHT31;62942;52.462;10.846;2023-06-10T00:41:00;13.2;89.5
74484;SHT31;62942;52.462;10.846;2023-06-10T00:42:10;13.2;89.5
74484;SHT31;62942;52.462;10.846;2023-06-10T00:43:20;13.2;89.7
74484;SHT31;62942;52.462;10.846;2023-06-10T00:44:30;13.1;89.9
74484;SHT31;62942;52.462;10.846;2023-06-10T00:45:31;13.1;90
74484;SHT31;62942;52.462;10.846;2023-06-10T00:46:40;13.1;90.1
74484;SHT31;62942;52.462;10.846;2023-06-10T00:47:40;13.1;90.2
74484;SHT31;62942;52.462;10.846;2023-06-10T00:48:50;13.1;90.2
74484;SHT31;62942;52.462;10.846;2023-06-10T00:50:00;13;90.4
74484;SHT31;62942;52.462;10.846;2023-06-10T00:51:00;13.1;90.5
74484;SHT31;62942;52.462;10.846;2023-06-10T00:52:10;13;90.5
74484;SHT31;62942;52.462;10.846;2023-06-10T00:53:21;13;90.7
74484;SHT31;62942;52.462;10.846;2023-06-10T00:54:30;13;90.8
74484;SHT31;62942;52.462;10.846;2023-06-10T00:55:30;13;90.9
74484;SHT31;62942;52.462;10.846;2023-06-10T00:56:40;13;90.8
74484;SHT31;62942;52.462;10.846;2023-06-10T00:57:50;12.9;90.8
74484;SHT31;62942;52.462;10.846;2023-06-10T00:58:50;12.9;90.9
74484;SHT31;62942;52.462;10.846;2023-06-10T01:00:00;12.9;91.1
74484;SHT31;62942;52.462;10.846;2023-06-10T01:01:00;12.9;91.1
74484;SHT31;62942;52.462;10.846;2023-06-10T01:02:10;12.9;91.1
74484;SHT31;62942;52.462;10.846;2023-06-10T01:03:10;12.9;91.2
74484;SHT31;62942;52.462;10.846;2023-06-10T01:04:10;12.9;91.2
74484;SHT31;62942;52.462;10.846;2023-06-10T01:05:20;12.9;91.3
74484;SHT31;62942;52.462;10.846;2023-06-10T01:06:32;12.8;91.4
74484;SHT31;62942;52.462;10.846;2023-06-10T01:07:43;12.8;91.5
74484;SHT31;62942;52.462;10.846;2023-06-10T01:08:52;12.9;91.7
74484;SHT31;62942;52.462;10.846;2023-06-10T01:10:01;12.8;91.6
74484;SHT31;62942;52.462;10.846;2023-06-10T01:11:12;12.8;91.5
74484;SHT31;62942;52.462;10.846;2023-06-10T01:12:23;12.8;91.5
74484;SHT31;62942;52.462;10.846;2023-06-10T01:13:30;12.8;91.5
74484;SHT31;62942;52.462;10.846;2023-06-10T01:14:30;12.8;91.6
74484;SHT31;62942;52.462;10.846;2023-06-10T01:15:40;12.8;91.5
74484;SHT31;62942;52.462;10.846;2023-06-10T01:16:50;12.8;91.6
74484;SHT31;62942;52.462;10.846;2023-06-10T01:17:53;12.7;91.8
74484;SHT31;62942;52.462;10.846;2023-06-10T01:19:00;12.7;91.7
74484;SHT31;62942;52.462;10.846;2023-06-10T01:20:10;12.7;91.8
74484;SHT31;62942;52.462;10.846;2023-06-10T01:21:21;12.6;91.8
74484;SHT31;62942;52.462;10.846;2023-06-10T01:22:30;12.6;91.9
74484;SHT31;62942;52.462;10.846;2023-06-10T01:23:30;12.6;91.9
74484;SHT31;62942;52.462;10.846;2023-06-10T01:24:30;12.6;91.9
74484;SHT31;62942;52.462;10.846;2023-06-10T01:25:41;12.6;92.2
74484;SHT31;62942;52.462;10.846;2023-06-10T01:26:40;12.6;92.2
74484;SHT31;62942;52.462;10.846;2023-06-10T01:27:50;12.6;92.2
74484;SHT31;62942;52.462;10.846;2023-06-10T01:28:52;12.5;92.3
74484;SHT31;62942;52.462;10.846;2023-06-10T01:29:50;12.5;92.3
74484;SHT31;62942;52.462;10.846;2023-06-10T01:30:58;12.5;92.3
74484;SHT31;62942;52.462;10.846;2023-06-10T01:32:01;12.5;92.4
74484;SHT31;62942;52.462;10.846;2023-06-10T01:33:00;12.5;92.5
74484;SHT31;62942;52.462;10.846;2023-06-10T01:34:00;12.5;92.5
74484;SHT31;62942;52.462;10.846;2023-06-10T01:35:10;12.5;92.6
74484;SHT31;62942;52.462;10.846;2023-06-10T01:36:21;12.4;92.6
74484;SHT31;62942;52.462;10.846;2023-06-10T01:37:20;12.4;92.7
74484;SHT31;62942;52.462;10.846;2023-06-10T01:38:31;12.4;92.7
74484;SHT31;62942;52.462;10.846;2023-06-10T01:39:40;12.4;92.8
74484;SHT31;62942;52.462;10.846;2023-06-10T01:40:50;12.4;92.8
74484;SHT31;62942;52.462;10.846;2023-06-10T01:42:00;12.4;92.9
74484;SHT31;62942;52.462;10.846;2023-06-10T01:43:10;12.3;93
74484;SHT31;62942;52.462;10.846;2023-06-10T01:44:20;12.3;93
74484;SHT31;62942;52.462;10.846;2023-06-10T01:45:30;12.3;93.1
74484;SHT31;62942;52.462;10.846;2023-06-10T01:46:30;12.3;93.1
74484;SHT31;62942;52.462;10.846;2023-06-10T01:47:40;12.2;93.1
74484;SHT31;62942;52.462;10.846;2023-06-10T01:48:50;12.2;93.1
74484;SHT31;62942;52.462;10.846;2023-06-10T01:50:00;12.2;93.1
74484;SHT31;62942;52.462;10.846;2023-06-10T01:51:00;12.1;93.2
74484;SHT31;62942;52.462;10.846;2023-06-10T01:52:10;12.1;93.3
74484;SHT31;62942;52.462;10.846;2023-06-10T01:53:10;12.1;93.5
74484;SHT31;62942;52.462;10.846;2023-06-10T01:54:20;12.1;93.5
74484;SHT31;62942;52.462;10.846;2023-06-10T01:55:30;12.1;93.6
74484;SHT31;62942;52.462;10.846;2023-06-10T01:56:40;12;93.6
74484;SHT31;62942;52.462;10.846;2023-06-10T01:57:50;12;93.6
74484;SHT31;62942;52.462;10.846;2023-06-10T01:59:00;12;93.8
74484;SHT31;62942;52.462;10.846;2023-06-10T02:00:00;12;93.9
74484;SHT31;62942;52.462;10.846;2023-06-10T02:01:10;12;93.8
74484;SHT31;62942;52.462;10.846;2023-06-10T02:02:10;12;93.9
74484;SHT31;62942;52.462;10.846;2023-06-10T02:03:20;12;93.9
74484;SHT31;62942;52.462;10.846;2023-06-10T02:04:20;11.9;93.9
74484;SHT31;62942;52.462;10.846;2023-06-10T02:05:30;11.9;93.9
74484;SHT31;62942;52.462;10.846;2023-06-10T02:06:40;11.9;93.8
74484;SHT31;62942;52.462;10.846;2023-06-10T02:07:50;11.9;93.9
74484;SHT31;62942;52.462;10.846;2023-06-10T02:09:00;11.9;93.9
74484;SHT31;62942;52.462;10.846;2023-06-10T02:10:10;11.8;93.9
74484;SHT31;62942;52.462;10.846;2023-06-10T02:11:20;11.8;93.9
74484;SHT31;62942;52.462;10.846;2023-06-10T02:12:20;11.8;94.1
74484;SHT31;62942;52.462;10.846;2023-06-10T02:13:30;11.8;94.2
74484;SHT31;62942;52.462;10.846;2023-06-10T02:14:40;11.8;94.3
74484;SHT31;62942;52.462;10.846;2023-06-10T02:15:40;11.8;94.3
74484;SHT31;62942;52.462;10.846;2023-06-10T02:16:50;11.8;94.4
74484;SHT31;62942;52.462;10.846;2023-06-10T02:18:00;11.8;94.5
74484;SHT31;62942;52.462;10.846;2023-06-10T02:19:10;11.7;94.5
74484;SHT31;62942;52.462;10.846;2023-06-10T02:20:20;11.7;94.6
74484;SHT31;62942;52.462;10.846;2023-06-10T02:21:30;11.7;94.6
74484;SHT31;62942;52.462;10.846;2023-06-10T02:22:40;11.7;94.6
74484;SHT31;62942;52.462;10.846;2023-06-10T02:23:40;11.7;94.6
74484;SHT31;62942;52.462;10.846;2023-06-10T02:24:50;11.7;94.7
74484;SHT31;62942;52.462;10.846;2023-06-10T02:25:50;11.7;94.7
74484;SHT31;62942;52.462;10.846;2023-06-10T02:27:00;11.7;94.8
74484;SHT31;62942;52.462;10.846;2023-06-10T02:28:10;11.7;94.8
74484;SHT31;62942;52.462;10.846;2023-06-10T02:29:20;11.6;94.8
74484;SHT31;62942;52.462;10.846;2023-06-10T02:30:30;11.6;94.8
74484;SHT31;62942;52.462;10.846;2023-06-10T02:31:40;11.6;94.7
74484;SHT31;62942;52.462;10.846;2023-06-10T02:32:50;11.5;94.7
74484;SHT31;62942;52.462;10.846;2023-06-10T02:33:50;11.6;94.6
74484;SHT31;62942;52.462;10.846;2023-06-10T02:35:00;11.5;94.7
74484;SHT31;62942;52.462;10.846;2023-06-10T02:36:10;11.5;94.8
74484;SHT31;62942;52.462;10.846;2023-06-10T02:37:20;11.5;94.9
74484;SHT31;62942;52.462;10.846;2023-06-10T02:38:30;11.5;95
74484;SHT31;62942;52.462;10.846;2023-06-10T02:39:40;11.5;95
74484;SHT31;62942;52.462;10.846;2023-06-10T02:40:50;11.5;95
74484;SHT31;62942;52.462;10.846;2023-06-10T02:42:00;11.4;95.1
74484;SHT31;62942;52.462;10.846;2023-06-10T02:43:10;11.4;95.1
74484;SHT31;62942;52.462;10.846;2023-06-10T02:44:20;11.4;95.2
74484;SHT31;62942;52.462;10.846;2023-06-10T02:45:30;11.4;95.2
74484;SHT31;62942;52.462;10.846;2023-06-10T02:46:40;11.4;95.5
74484;SHT31;62942;52.462;10.846;2023-06-10T02:47:50;11.4;95.4
74484;SHT31;62942;52.462;10.846;2023-06-10T02:49:00;11.4;95.5
74484;SHT31;62942;52.462;10.846;2023-06-10T02:50:00;11.4;95.6
74484;SHT31;62942;52.462;10.846;2023-06-10T02:51:00;11.4;95.5
74484;SHT31;62942;52.462;10.846;2023-06-10T02:52:10;11.4;95.6
74484;SHT31;62942;52.462;10.846;2023-06-10T02:53:20;11.4;95.6
74484;SHT31;62942;52.462;10.846;2023-06-10T02:54:30;11.4;95.6
74484;SHT31;62942;52.462;10.846;2023-06-10T02:55:40;11.4;95.6
74484;SHT31;62942;52.462;10.846;2023-06-10T02:56:40;11.3;95.6
74484;SHT31;62942;52.462;10.846;2023-06-10T02:57:40;11.3;95.7
74484;SHT31;62942;52.462;10.846;2023-06-10T02:58:50;11.3;95.7
74484;SHT31;62942;52.462;10.846;2023-06-10T03:00:00;11.3;95.7
74484;SHT31;62942;52.462;10.846;2023-06-10T03:01:10;11.3;95.7
74484;SHT31;62942;52.462;10.846;2023-06-10T03:02:10;11.3;95.7
74484;SHT31;62942;52.462;10.846;2023-06-10T03:03:20;11.3;95.7
74484;SHT31;62942;52.462;10.846;2023-06-10T03:04:30;11.3;95.7
74484;SHT31;62942;52.462;10.846;2023-06-10T03:05:40;11.3;95.7
74484;SHT31;62942;52.462;10.846;2023-06-10T03:06:50;11.3;95.8
74484;SHT31;62942;52.462;10.846;2023-06-10T03:08:00;11.3;95.8
74484;SHT31;62942;52.462;10.846;2023-06-10T03:09:00;11.3;95.8
74484;SHT31;62942;52.462;10.846;2023-06-10T03:10:10;11.3;95.9
74484;SHT31;62942;52.462;10.846;2023-06-10T03:11:20;11.3;95.9
74484;SHT31;62942;52.462;10.846;2023-06-10T03:12:30;11.3;95.9
74484;SHT31;62942;52.462;10.846;2023-06-10T03:13:30;11.3;95.9
74484;SHT31;62942;52.462;10.846;2023-06-10T03:14:30;11.3;95.9
74484;SHT31;62942;52.462;10.846;2023-06-10T03:15:40;11.3;96
74484;SHT31;62942;52.462;10.846;2023-06-10T03:16:50;11.3;96
74484;SHT31;62942;52.462;10.846;2023-06-10T03:17:50;11.3;96
74484;SHT31;62942;52.462;10.846;2023-06-10T03:18:50;11.2;96
74484;SHT31;62942;52.462;10.846;2023-06-10T03:20:00;11.3;96.1
74484;SHT31;62942;52.462;10.846;2023-06-10T03:21:00;11.3;96.1
74484;SHT31;62942;52.462;10.846;2023-06-10T03:22:10;11.3;96
74484;SHT31;62942;52.462;10.846;2023-06-10T03:23:20;11.3;96.1
74484;SHT31;62942;52.462;10.846;2023-06-10T03:24:30;11.3;96.1
74484;SHT31;62942;52.462;10.846;2023-06-10T03:25:30;11.3;96.1
74484;SHT31;62942;52.462;10.846;2023-06-10T03:26:40;11.3;96.2
74484;SHT31;62942;52.462;10.846;2023-06-10T03:27:41;11.3;96.1
74484;SHT31;62942;52.462;10.846;2023-06-10T03:28:50;11.4;96.2
74484;SHT31;62942;52.462;10.846;2023-06-10T03:29:50;11.4;96.2
74484;SHT31;62942;52.462;10.846;2023-06-10T03:31:00;11.4;96.2
74484;SHT31;62942;52.462;10.846;2023-06-10T03:32:00;11.4;96.2
74484;SHT31;62942;52.462;10.846;2023-06-10T03:33:10;11.4;96.2
74484;SHT31;62942;52.462;10.846;2023-06-10T03:34:10;11.4;96.2
74484;SHT31;62942;52.462;10.846;2023-06-10T03:35:20;11.4;96.2
74484;SHT31;62942;52.462;10.846;2023-06-10T03:36:30;11.4;96.2
74484;SHT31;62942;52.462;10.846;2023-06-10T03:37:30;11.5;96.1
74484;SHT31;62942;52.462;10.846;2023-06-10T03:38:40;11.4;96.1
74484;SHT31;62942;52.462;10.846;2023-06-10T03:39:40;11.5;96.1
74484;SHT31;62942;52.462;10.846;2023-06-10T03:40:50;11.5;96.1
74484;SHT31;62942;52.462;10.846;2023-06-10T03:41:50;11.5;96
74484;SHT31;62942;52.462;10.846;2023-06-10T03:43:00;11.5;96
74484;SHT31;62942;52.462;10.846;2023-06-10T03:44:00;11.5;96
74484;SHT31;62942;52.462;10.846;2023-06-10T03:45:10;11.5;96
74484;SHT31;62942;52.462;10.846;2023-06-10T03:46:10;11.5;96
74484;SHT31;62942;52.462;10.846;2023-06-10T03:47:20;11.5;96
74484;SHT31;62942;52.462;10.846;2023-06-10T03:48:20;11.5;96
74484;SHT31;62942;52.462;10.846;2023-06-10T03:49:20;11.5;96
74484;SHT31;62942;52.462;10.846;2023-06-10T03:50:30;11.5;95.9
74484;SHT31;62942;52.462;10.846;2023-06-10T03:51:30;11.6;95.9
74484;SHT31;62942;52.462;10.846;2023-06-10T03:52:40;11.6;95.8
74484;SHT31;62942;52.462;10.846;2023-06-10T03:53:50;11.6;95.8
74484;SHT31;62942;52.462;10.846;2023-06-10T03:55:00;11.6;95.7
74484;SHT31;62942;52.462;10.846;2023-06-10T03:56:00;11.6;95.6
74484;SHT31;62942;52.462;10.846;2023-06-10T03:57:00;11.7;95.6
74484;SHT31;62942;52.462;10.846;2023-06-10T03:58:10;11.7;95.5
74484;SHT31;62942;52.462;10.846;2023-06-10T03:59:10;11.7;95.5
74484;SHT31;62942;52.462;10.846;2023-06-10T04:00:20;11.7;95.5
74484;SHT31;62942;52.462;10.846;2023-06-10T04:01:20;11.7;95.4
74484;SHT31;62942;52.462;10.846;2023-06-10T04:02:30;11.7;95.4
74484;SHT31;62942;52.462;10.846;2023-06-10T04:03:30;11.8;95.3
74484;SHT31;62942;52.462;10.846;2023-06-10T04:04:40;11.8;95.2
74484;SHT31;62942;52.462;10.846;2023-06-10T04:05:40;11.8;95.2
74484;SHT31;62942;52.462;10.846;2023-06-10T04:06:40;11.8;95.2
74484;SHT31;62942;52.462;10.846;2023-06-10T04:07:50;11.8;95
74484;SHT31;62942;52.462;10.846;2023-06-10T04:09:00;11.8;95
74484;SHT31;62942;52.462;10.846;2023-06-10T04:10:00;11.9;94.9
74484;SHT31;62942;52.462;10.846;2023-06-10T04:11:10;11.9;94.8
74484;SHT31;62942;52.462;10.846;2023-06-10T04:12:10;11.9;94.8
74484;SHT31;62942;52.462;10.846;2023-06-10T04:13:10;11.9;94.7
74484;SHT31;62942;52.462;10.846;2023-06-10T04:14:20;11.9;94.6
74484;SHT31;62942;52.462;10.846;2023-06-10T04:15:20;12;94.6
74484;SHT31;62942;52.462;10.846;2023-06-10T04:16:30;12;94.5
74484;SHT31;62942;52.462;10.846;2023-06-10T04:17:30;12;94.5
74484;SHT31;62942;52.462;10.846;2023-06-10T04:18:30;12;94.4
74484;SHT31;62942;52.462;10.846;2023-06-10T04:19:40;12.1;94.3
74484;SHT31;62942;52.462;10.846;2023-06-10T04:20:40;12.1;94.3
74484;SHT31;62942;52.462;10.846;2023-06-10T04:21:50;12.1;94.2
74484;SHT31;62942;52.462;10.846;2023-06-10T04:22:50;12.1;94.2
74484;SHT31;62942;52.462;10.846;2023-06-10T04:24:00;12.1;94.1
74484;SHT31;62942;52.462;10.846;2023-06-10T04:25:00;12.2;94.1
74484;SHT31;62942;52.462;10.846;2023-06-10T04:26:10;12.2;94
74484;SHT31;62942;52.462;10.846;2023-06-10T04:27:20;12.3;93.9
74484;SHT31;62942;52.462;10.846;2023-06-10T04:28:20;12.3;93.8
74484;SHT31;62942;52.462;10.846;2023-06-10T04:29:30;12.3;93.6
74484;SHT31;62942;52.462;10.846;2023-06-10T04:30:40;12.4;93.6
74484;SHT31;62942;52.462;10.846;2023-06-10T04:31:40;12.4;93.5
74484;SHT31;62942;52.462;10.846;2023-06-10T04:32:40;12.4;93.3
74484;SHT31;62942;52.462;10.846;2023-06-10T04:33:50;12.4;93.1
74484;SHT31;62942;52.462;10.846;2023-06-10T04:35:00;12.5;93
74484;SHT31;62942;52.462;10.846;2023-06-10T04:36:00;12.5;93
74484;SHT31;62942;52.462;10.846;2023-06-10T04:37:00;12.5;92.9
74484;SHT31;62942;52.462;10.846;2023-06-10T04:38:10;12.6;92.8
74484;SHT31;62942;52.462;10.846;2023-06-10T04:39:10;12.6;92.7
74484;SHT31;62942;52.462;10.846;2023-06-10T04:40:10;12.7;92.6
74484;SHT31;62942;52.462;10.846;2023-06-10T04:41:20;12.6;92.5
74484;SHT31;62942;52.462;10.846;2023-06-10T04:42:20;12.7;92.4
74484;SHT31;62942;52.462;10.846;2023-06-10T04:43:30;12.7;92.3
74484;SHT31;62942;52.462;10.846;2023-06-10T04:44:30;12.7;92.3
74484;SHT31;62942;52.462;10.846;2023-06-10T04:45:30;12.8;92.2
74484;SHT31;62942;52.462;10.846;2023-06-10T04:46:40;12.8;92.1
74484;SHT31;62942;52.462;10.846;2023-06-10T04:47:50;12.9;92
74484;SHT31;62942;52.462;10.846;2023-06-10T04:49:00;12.9;91.8
74484;SHT31;62942;52.462;10.846;2023-06-10T04:50:10;13;91.7
74484;SHT31;62942;52.462;10.846;2023-06-10T04:51:10;13;91.6
74484;SHT31;62942;52.462;10.846;2023-06-10T04:52:10;13.1;91.5
74484;SHT31;62942;52.462;10.846;2023-06-10T04:53:20;13.1;91.4
74484;SHT31;62942;52.462;10.846;2023-06-10T04:54:30;13.2;91.3
74484;SHT31;62942;52.462;10.846;2023-06-10T04:55:30;13.3;91.1
74484;SHT31;62942;52.462;10.846;2023-06-10T04:56:40;13.3;90.8
74484;SHT31;62942;52.462;10.846;2023-06-10T04:57:40;13.4;90.6
74484;SHT31;62942;52.462;10.846;2023-06-10T04:58:50;13.5;90.5
74484;SHT31;62942;52.462;10.846;2023-06-10T05:00:00;13.5;90.1
74484;SHT31;62942;52.462;10.846;2023-06-10T05:01:00;13.6;89.9
74484;SHT31;62942;52.462;10.846;2023-06-10T05:02:00;13.7;89.7
74484;SHT31;62942;52.462;10.846;2023-06-10T05:03:00;13.7;89.5
74484;SHT31;62942;52.462;10.846;2023-06-10T05:04:10;13.8;89.1
74484;SHT31;62942;52.462;10.846;2023-06-10T05:05:20;13.8;89
74484;SHT31;62942;52.462;10.846;2023-06-10T05:06:30;13.9;88.8
74484;SHT31;62942;52.462;10.846;2023-06-10T05:07:40;14;88.5
74484;SHT31;62942;52.462;10.846;2023-06-10T05:08:50;14;88.2
74484;SHT31;62942;52.462;10.846;2023-06-10T05:09:50;14.1;87.9
74484;SHT31;62942;52.462;10.846;2023-06-10T05:11:00;14.1;87.7
74484;SHT31;62942;52.462;10.846;2023-06-10T05:12:00;14.2;87.5
74484;SHT31;62942;52.462;10.846;2023-06-10T05:13:10;14.2;87.3
74484;SHT31;62942;52.462;10.846;2023-06-10T05:14:10;14.2;87.1
74484;SHT31;62942;52.462;10.846;2023-06-10T05:15:20;14.3;86.8
74484;SHT31;62942;52.462;10.846;2023-06-10T05:16:20;14.3;86.6
74484;SHT31;62942;52.462;10.846;2023-06-10T05:17:20;14.3;86.5
74484;SHT31;62942;52.462;10.846;2023-06-10T05:18:20;14.4;86.5
74484;SHT31;62942;52.462;10.846;2023-06-10T05:19:30;14.4;86.3
74484;SHT31;62942;52.462;10.846;2023-06-10T05:20:40;14.5;86.2
74484;SHT31;62942;52.462;10.846;2023-06-10T05:21:50;14.5;86
74484;SHT31;62942;52.462;10.846;2023-06-10T05:22:50;14.5;85.8
74484;SHT31;62942;52.462;10.846;2023-06-10T05:23:50;14.6;85.6
74484;SHT31;62942;52.462;10.846;2023-06-10T05:24:50;14.6;85.5
74484;SHT31;62942;52.462;10.846;2023-06-10T05:25:50;14.7;85.4
74484;SHT31;62942;52.462;10.846;2023-06-10T05:26:50;14.8;85.3
74484;SHT31;62942;52.462;10.846;2023-06-10T05:28:00;14.9;85.1
74484;SHT31;62942;52.462;10.846;2023-06-10T05:29:00;15;84.9
74484;SHT31;62942;52.462;10.846;2023-06-10T05:30:00;15.1;84.4
74484;SHT31;62942;52.462;10.846;2023-06-10T05:31:10;15.2;84.2
74484;SHT31;62942;52.462;10.846;2023-06-10T05:32:20;15.4;83.5
74484;SHT31;62942;52.462;10.846;2023-06-10T05:33:30;15.5;82.9
74484;SHT31;62942;52.462;10.846;2023-06-10T05:34:40;15.7;82.7
74484;SHT31;62942;52.462;10.846;2023-06-10T05:35:50;15.9;81.8
74484;SHT31;62942;52.462;10.846;2023-06-10T05:37:00;16.1;80.5
74484;SHT31;62942;52.462;10.846;2023-06-10T05:38:00;16.1;80.3
74484;SHT31;62942;52.462;10.846;2023-06-10T05:39:00;16.3;80.3
74484;SHT31;62942;52.462;10.846;2023-06-10T05:40:10;16.3;79.1
74484;SHT31;62942;52.462;10.846;2023-06-10T05:41:20;16.5;79.4
74484;SHT31;62942;52.462;10.846;2023-06-10T05:42:20;16.6;79
74484;SHT31;62942;52.462;10.846;2023-06-10T05:43:20;16.7;77.7
74484;SHT31;62942;52.462;10.846;2023-06-10T05:44:30;16.8;77.7
74484;SHT31;62942;52.462;10.846;2023-06-10T05:45:30;16.9;77.3
74484;SHT31;62942;52.462;10.846;2023-06-10T05:46:40;17;76.4
74484;SHT31;62942;52.462;10.846;2023-06-10T05:47:40;17.1;76.5
74484;SHT31;62942;52.462;10.846;2023-06-10T05:48:40;17.2;76
74484;SHT31;62942;52.462;10.846;2023-06-10T05:49:50;17.3;75.3
74484;SHT31;62942;52.462;10.846;2023-06-10T05:51:00;17.3;74.8
74484;SHT31;62942;52.462;10.846;2023-06-10T05:52:10;17.4;75.2
74484;SHT31;62942;52.462;10.846;2023-06-10T05:53:10;17.5;75
74484;SHT31;62942;52.462;10.846;2023-06-10T05:54:20;17.6;74.4
74484;SHT31;62942;52.462;10.846;2023-06-10T05:55:30;17.7;73.5
74484;SHT31;62942;52.462;10.846;2023-06-10T05:56:30;17.9;73.6
74484;SHT31;62942;52.462;10.846;2023-06-10T05:57:41;18;73.2
74484;SHT31;62942;52.462;10.846;2023-06-10T05:58:40;18.1;73
74484;SHT31;62942;52.462;10.846;2023-06-10T05:59:40;18.2;72.5
74484;SHT31;62942;52.462;10.846;2023-06-10T06:00:50;18.3;71.6
74484;SHT31;62942;52.462;10.846;2023-06-10T06:01:50;18.3;71.2
74484;SHT31;62942;52.462;10.846;2023-06-10T06:03:00;18.5;71.3
74484;SHT31;62942;52.462;10.846;2023-06-10T06:04:00;18.6;71
74484;SHT31;62942;52.462;10.846;2023-06-10T06:05:10;18.8;70.4
74484;SHT31;62942;52.462;10.846;2023-06-10T06:06:10;18.9;70.1
74484;SHT31;62942;52.462;10.846;2023-06-10T06:07:20;19.1;69.6
74484;SHT31;62942;52.462;10.846;2023-06-10T06:08:30;19.3;68.9
74484;SHT31;62942;52.462;10.846;2023-06-10T06:09:40;19.5;68.4
74484;SHT31;62942;52.462;10.846;2023-06-10T06:10:50;19.7;67.7
74484;SHT31;62942;52.462;10.846;2023-06-10T06:11:50;19.8;67.3
74484;SHT31;62942;52.462;10.846;2023-06-10T06:13:00;19.9;66.5
74484;SHT31;62942;52.462;10.846;2023-06-10T06:14:10;20;66.4
74484;SHT31;62942;52.462;10.846;2023-06-10T06:15:20;20.1;66.6
74484;SHT31;62942;52.462;10.846;2023-06-10T06:16:20;20.2;66.1
74484;SHT31;62942;52.462;10.846;2023-06-10T06:17:30;20.3;65.4
74484;SHT31;62942;52.462;10.846;2023-06-10T06:18:40;20.5;65.1
74484;SHT31;62942;52.462;10.846;2023-06-10T06:19:50;20.6;64.8
74484;SHT31;62942;52.462;10.846;2023-06-10T06:20:50;20.7;64.3
74484;SHT31;62942;52.462;10.846;2023-06-10T06:22:00;20.8;63.6
74484;SHT31;62942;52.462;10.846;2023-06-10T06:23:10;20.9;63.3
74484;SHT31;62942;52.462;10.846;2023-06-10T06:24:10;20.9;63.2
74484;SHT31;62942;52.462;10.846;2023-06-10T06:25:20;21;63
74484;SHT31;62942;52.462;10.846;2023-06-10T06:26:30;21.1;62.3
74484;SHT31;62942;52.462;10.846;2023-06-10T06:27:40;21.1;62.8
74484;SHT31;62942;52.462;10.846;2023-06-10T06:28:40;21.2;62.2
74484;SHT31;62942;52.462;10.846;2023-06-10T06:29:40;21.2;62.2
74484;SHT31;62942;52.462;10.846;2023-06-10T06:30:50;21.2;61.7
74484;SHT31;62942;52.462;10.846;2023-06-10T06:32:00;21.1;61.7
74484;SHT31;62942;52.462;10.846;2023-06-10T06:33:00;21;62.2
74484;SHT31;62942;52.462;10.846;2023-06-10T06:34:10;21;62.5
74484;SHT31;62942;52.462;10.846;2023-06-10T06:35:20;21.1;62
74484;SHT31;62942;52.462;10.846;2023-06-10T06:36:30;21.1;62.3
74484;SHT31;62942;52.462;10.846;2023-06-10T06:37:40;21.1;61.9
74484;SHT31;62942;52.462;10.846;2023-06-10T06:38:40;21;62.1
74484;SHT31;62942;52.462;10.846;2023-06-10T06:39:40;21;62.2
74484;SHT31;62942;52.462;10.846;2023-06-10T06:40:50;21;62.2
74484;SHT31;62942;52.462;10.846;2023-06-10T06:42:00;21.1;62.4
74484;SHT31;62942;52.462;10.846;2023-06-10T06:43:10;21.1;62.5
74484;SHT31;62942;52.462;10.846;2023-06-10T06:44:10;21.3;62.5
74484;SHT31;62942;52.462;10.846;2023-06-10T06:45:20;21.5;62.3
74484;SHT31;62942;52.462;10.846;2023-06-10T06:46:30;21.7;61.3
74484;SHT31;62942;52.462;10.846;2023-06-10T06:47:30;21.8;60.8
74484;SHT31;62942;52.462;10.846;2023-06-10T06:48:30;21.9;60.5
74484;SHT31;62942;52.462;10.846;2023-06-10T06:49:30;22;60.3
74484;SHT31;62942;52.462;10.846;2023-06-10T06:50:30;22.1;60.2
74484;SHT31;62942;52.462;10.846;2023-06-10T06:51:30;22.1;59.9
74484;SHT31;62942;52.462;10.846;2023-06-10T06:52:40;22.2;59.6
74484;SHT31;62942;52.462;10.846;2023-06-10T06:53:40;22.2;59.9
74484;SHT31;62942;52.462;10.846;2023-06-10T06:54:50;22.3;59.6
74484;SHT31;62942;52.462;10.846;2023-06-10T06:56:00;22.4;59.3
74484;SHT31;62942;52.462;10.846;2023-06-10T06:57:10;22.5;59.3
74484;SHT31;62942;52.462;10.846;2023-06-10T06:58:20;22.5;59.2
74484;SHT31;62942;52.462;10.846;2023-06-10T06:59:20;22.5;59.1
74484;SHT31;62942;52.462;10.846;2023-06-10T07:00:20;22.6;58.9
74484;SHT31;62942;52.462;10.846;2023-06-10T07:01:30;22.7;58.6
74484;SHT31;62942;52.462;10.846;2023-06-10T07:02:30;22.8;58.3
74484;SHT31;62942;52.462;10.846;2023-06-10T07:03:40;22.9;58.1
74484;SHT31;62942;52.462;10.846;2023-06-10T07:04:50;22.9;57.7
74484;SHT31;62942;52.462;10.846;2023-06-10T07:05:50;22.8;57.8
74484;SHT31;62942;52.462;10.846;2023-06-10T07:06:50;22.8;58